sensor_id;sensor_type;location;lat;lon;timestamp;temperature;humidity
31677;DHT22;18385;51.572;6.578;2022-12-20T00:02:09;13.20;67.50
31677;DHT22;18385;51.572;6.578;2022-12-20T00:04:34;13.20;67.40
31677;DHT22;18385;51.572;6.578;2022-12-20T00:07:00;13.20;67.30
31677;DHT22;18385;51.572;6.578;2022-12-20T00:09:26;13.10;67.40
31677;DHT22;18385;51.572;6.578;2022-12-20T00:11:52;13.10;67.60
31677;DHT22;18385;51.572;6.578;2022-12-20T00:14:17;13.10;67.60
31677;DHT22;18385;51.572;6.578;2022-12-20T00:16:43;13.10;67.60
31677;DHT22;18385;51.572;6.578;2022-12-20T00:19:10;13.20;67.60
31677;DHT22;18385;51.572;6.578;2022-12-20T00:21:36;13.20;67.60
31677;DHT22;18385;51.572;6.578;2022-12-20T00:24:04;13.20;67.60
31677;DHT22;18385;51.572;6.578;2022-12-20T00:26:31;13.30;67.60
31677;DHT22;18385;51.572;6.578;2022-12-20T00:28:58;13.30;67.60
31677;DHT22;18385;51.572;6.578;2022-12-20T00:31:26;13.30;67.50
31677;DHT22;18385;51.572;6.578;2022-12-20T00:33:54;13.40;67.40
31677;DHT22;18385;51.572;6.578;2022-12-20T00:36:20;13.40;67.40
31677;DHT22;18385;51.572;6.578;2022-12-20T00:38:48;13.40;67.40
31677;DHT22;18385;51.572;6.578;2022-12-20T00:41:17;13.30;67.30
31677;DHT22;18385;51.572;6.578;2022-12-20T00:43:43;13.30;67.30
31677;DHT22;18385;51.572;6.578;2022-12-20T00:46:10;13.30;67.40
31677;DHT22;18385;51.572;6.578;2022-12-20T00:48:36;13.30;67.40
31677;DHT22;18385;51.572;6.578;2022-12-20T00:51:10;13.30;67.40
31677;DHT22;18385;51.572;6.578;2022-12-20T00:53:37;13.40;67.40
31677;DHT22;18385;51.572;6.578;2022-12-20T00:56:04;13.30;67.30
31677;DHT22;18385;51.572;6.578;2022-12-20T00:58:31;13.40;67.40
31677;DHT22;18385;51.572;6.578;2022-12-20T01:00:58;13.40;67.30
31677;DHT22;18385;51.572;6.578;2022-12-20T01:03:24;13.40;67.40
31677;DHT22;18385;51.572;6.578;2022-12-20T01:08:21;13.40;67.40
31677;DHT22;18385;51.572;6.578;2022-12-20T01:13:26;13.40;67.40
31677;DHT22;18385;51.572;6.578;2022-12-20T01:15:52;13.40;67.40
31677;DHT22;18385;51.572;6.578;2022-12-20T01:18:18;13.40;67.40
31677;DHT22;18385;51.572;6.578;2022-12-20T01:20:44;13.50;67.40
31677;DHT22;18385;51.572;6.578;2022-12-20T01:23:10;13.50;67.30
31677;DHT22;18385;51.572;6.578;2022-12-20T01:25:35;13.50;67.30
31677;DHT22;18385;51.572;6.578;2022-12-20T01:28:01;13.60;67.20
31677;DHT22;18385;51.572;6.578;2022-12-20T01:30:27;13.60;67.30
31677;DHT22;18385;51.572;6.578;2022-12-20T01:32:52;13.60;67.40
31677;DHT22;18385;51.572;6.578;2022-12-20T01:35:18;13.70;68.30
31677;DHT22;18385;51.572;6.578;2022-12-20T01:37:44;13.80;67.40
31677;DHT22;18385;51.572;6.578;2022-12-20T01:40:10;13.80;67.30
31677;DHT22;18385;51.572;6.578;2022-12-20T01:42:36;13.90;67.20
31677;DHT22;18385;51.572;6.578;2022-12-20T01:45:06;13.90;67.10
31677;DHT22;18385;51.572;6.578;2022-12-20T01:47:34;13.90;67.00
31677;DHT22;18385;51.572;6.578;2022-12-20T01:50:02;13.80;67.10
31677;DHT22;18385;51.572;6.578;2022-12-20T01:52:38;13.80;67.10
31677;DHT22;18385;51.572;6.578;2022-12-20T01:55:16;13.80;67.10
31677;DHT22;18385;51.572;6.578;2022-12-20T01:57:47;13.80;67.10
31677;DHT22;18385;51.572;6.578;2022-12-20T02:00:14;13.80;67.20
31677;DHT22;18385;51.572;6.578;2022-12-20T02:02:41;13.70;67.20
31677;DHT22;18385;51.572;6.578;2022-12-20T02:05:09;13.80;67.30
31677;DHT22;18385;51.572;6.578;2022-12-20T02:07:35;13.80;67.20
31677;DHT22;18385;51.572;6.578;2022-12-20T02:10:03;13.90;67.20
31677;DHT22;18385;51.572;6.578;2022-12-20T02:12:51;13.90;67.10
31677;DHT22;18385;51.572;6.578;2022-12-20T02:15:58;14.10;67.10
31677;DHT22;18385;51.572;6.578;2022-12-20T02:18:28;14.10;67.00
31677;DHT22;18385;51.572;6.578;2022-12-20T02:29:21;14.10;66.80
31677;DHT22;18385;51.572;6.578;2022-12-20T02:34:23;14.10;66.80
31677;DHT22;18385;51.572;6.578;2022-12-20T02:36:50;14.20;66.80
31677;DHT22;18385;51.572;6.578;2022-12-20T02:39:17;14.20;66.70
31677;DHT22;18385;51.572;6.578;2022-12-20T02:41:47;14.20;66.60
31677;DHT22;18385;51.572;6.578;2022-12-20T02:44:15;14.20;66.50
31677;DHT22;18385;51.572;6.578;2022-12-20T02:47:04;14.20;66.60
31677;DHT22;18385;51.572;6.578;2022-12-20T02:49:36;14.10;66.60
31677;DHT22;18385;51.572;6.578;2022-12-20T02:52:08;14.20;66.60
31677;DHT22;18385;51.572;6.578;2022-12-20T02:54:37;14.10;66.70
31677;DHT22;18385;51.572;6.578;2022-12-20T02:57:17;14.10;66.70
31677;DHT22;18385;51.572;6.578;2022-12-20T03:00:03;14.00;66.60
31677;DHT22;18385;51.572;6.578;2022-12-20T03:02:32;14.00;66.70
31677;DHT22;18385;51.572;6.578;2022-12-20T03:05:22;13.90;66.70
31677;DHT22;18385;51.572;6.578;2022-12-20T03:07:49;13.80;66.90
31677;DHT22;18385;51.572;6.578;2022-12-20T03:10:17;13.70;67.00
31677;DHT22;18385;51.572;6.578;2022-12-20T03:12:43;13.70;67.10
31677;DHT22;18385;51.572;6.578;2022-12-20T03:15:09;13.70;68.00
31677;DHT22;18385;51.572;6.578;2022-12-20T03:17:35;13.70;67.20
31677;DHT22;18385;51.572;6.578;2022-12-20T03:20:02;13.70;67.20
31677;DHT22;18385;51.572;6.578;2022-12-20T03:22:31;13.70;67.20
31677;DHT22;18385;51.572;6.578;2022-12-20T03:24:58;13.70;67.30
31677;DHT22;18385;51.572;6.578;2022-12-20T03:27:25;13.70;67.30
31677;DHT22;18385;51.572;6.578;2022-12-20T03:29:53;13.70;67.30
31677;DHT22;18385;51.572;6.578;2022-12-20T03:32:20;13.70;67.30
31677;DHT22;18385;51.572;6.578;2022-12-20T03:34:46;13.70;67.30
31677;DHT22;18385;51.572;6.578;2022-12-20T03:37:14;13.70;67.30
31677;DHT22;18385;51.572;6.578;2022-12-20T03:39:40;13.70;67.30
31677;DHT22;18385;51.572;6.578;2022-12-20T03:42:07;13.70;67.30
31677;DHT22;18385;51.572;6.578;2022-12-20T03:44:33;13.70;67.40
31677;DHT22;18385;51.572;6.578;2022-12-20T03:46:58;13.80;67.40
31677;DHT22;18385;51.572;6.578;2022-12-20T03:49:24;13.80;67.30
31677;DHT22;18385;51.572;6.578;2022-12-20T03:51:51;13.80;67.30
31677;DHT22;18385;51.572;6.578;2022-12-20T03:54:17;13.90;67.30
31677;DHT22;18385;51.572;6.578;2022-12-20T03:56:59;13.90;67.30
31677;DHT22;18385;51.572;6.578;2022-12-20T03:59:25;13.90;67.30
31677;DHT22;18385;51.572;6.578;2022-12-20T04:01:51;13.90;67.30
31677;DHT22;18385;51.572;6.578;2022-12-20T04:04:17;13.90;67.30
31677;DHT22;18385;51.572;6.578;2022-12-20T04:06:43;14.00;67.30
31677;DHT22;18385;51.572;6.578;2022-12-20T04:09:08;14.00;67.40
31677;DHT22;18385;51.572;6.578;2022-12-20T04:11:41;14.10;67.30
31677;DHT22;18385;51.572;6.578;2022-12-20T04:14:12;14.10;67.20
31677;DHT22;18385;51.572;6.578;2022-12-20T04:16:38;14.20;67.20
31677;DHT22;18385;51.572;6.578;2022-12-20T04:19:04;14.20;68.00
31677;DHT22;18385;51.572;6.578;2022-12-20T04:21:36;14.20;67.10
31677;DHT22;18385;51.572;6.578;2022-12-20T04:24:03;14.20;67.20
31677;DHT22;18385;51.572;6.578;2022-12-20T04:26:46;14.20;67.10
31677;DHT22;18385;51.572;6.578;2022-12-20T04:29:12;14.10;67.10
31677;DHT22;18385;51.572;6.578;2022-12-20T04:31:40;14.20;67.20
31677;DHT22;18385;51.572;6.578;2022-12-20T04:34:06;14.10;67.20
31677;DHT22;18385;51.572;6.578;2022-12-20T04:36:33;14.10;67.30
31677;DHT22;18385;51.572;6.578;2022-12-20T04:39:02;14.10;67.30
31677;DHT22;18385;51.572;6.578;2022-12-20T04:41:36;14.10;67.30
31677;DHT22;18385;51.572;6.578;2022-12-20T04:44:08;14.10;67.40
31677;DHT22;18385;51.572;6.578;2022-12-20T04:46:36;14.10;67.40
31677;DHT22;18385;51.572;6.578;2022-12-20T04:49:03;14.10;67.50
31677;DHT22;18385;51.572;6.578;2022-12-20T04:51:32;14.10;67.40
31677;DHT22;18385;51.572;6.578;2022-12-20T04:53:58;14.10;68.20
31677;DHT22;18385;51.572;6.578;2022-12-20T04:56:32;14.10;67.40
31677;DHT22;18385;51.572;6.578;2022-12-20T04:59:04;14.10;67.40
31677;DHT22;18385;51.572;6.578;2022-12-20T05:01:30;14.10;67.40
31677;DHT22;18385;51.572;6.578;2022-12-20T05:03:55;14.10;67.50
31677;DHT22;18385;51.572;6.578;2022-12-20T05:06:22;14.10;67.60
31677;DHT22;18385;51.572;6.578;2022-12-20T05:08:48;14.00;67.50
31677;DHT22;18385;51.572;6.578;2022-12-20T05:11:14;13.90;67.50
31677;DHT22;18385;51.572;6.578;2022-12-20T05:13:40;13.90;67.60
31677;DHT22;18385;51.572;6.578;2022-12-20T05:16:07;13.90;67.80
31677;DHT22;18385;51.572;6.578;2022-12-20T05:18:34;13.80;67.80
31677;DHT22;18385;51.572;6.578;2022-12-20T05:21:04;13.80;67.90
31677;DHT22;18385;51.572;6.578;2022-12-20T05:23:50;13.80;68.00
31677;DHT22;18385;51.572;6.578;2022-12-20T05:26:48;13.70;68.00
31677;DHT22;18385;51.572;6.578;2022-12-20T05:29:16;13.70;68.10
31677;DHT22;18385;51.572;6.578;2022-12-20T05:31:42;13.70;68.10
31677;DHT22;18385;51.572;6.578;2022-12-20T05:34:08;13.70;68.20
31677;DHT22;18385;51.572;6.578;2022-12-20T05:36:36;13.70;68.20
31677;DHT22;18385;51.572;6.578;2022-12-20T05:39:03;13.70;68.20
31677;DHT22;18385;51.572;6.578;2022-12-20T05:41:33;13.70;68.20
31677;DHT22;18385;51.572;6.578;2022-12-20T05:43:59;13.70;68.30
31677;DHT22;18385;51.572;6.578;2022-12-20T05:46:26;13.70;68.30
31677;DHT22;18385;51.572;6.578;2022-12-20T05:48:57;13.70;68.30
31677;DHT22;18385;51.572;6.578;2022-12-20T05:51:23;13.70;68.30
31677;DHT22;18385;51.572;6.578;2022-12-20T05:53:54;13.70;68.30
31677;DHT22;18385;51.572;6.578;2022-12-20T05:56:30;13.60;68.30
31677;DHT22;18385;51.572;6.578;2022-12-20T05:58:56;13.60;68.30
31677;DHT22;18385;51.572;6.578;2022-12-20T06:01:23;13.50;68.40
31677;DHT22;18385;51.572;6.578;2022-12-20T06:03:53;13.60;68.50
31677;DHT22;18385;51.572;6.578;2022-12-20T06:06:20;13.50;68.50
31677;DHT22;18385;51.572;6.578;2022-12-20T06:08:46;13.50;68.60
31677;DHT22;18385;51.572;6.578;2022-12-20T06:11:34;13.50;68.60
31677;DHT22;18385;51.572;6.578;2022-12-20T06:14:04;13.50;68.60
31677;DHT22;18385;51.572;6.578;2022-12-20T06:16:31;13.50;68.70
31677;DHT22;18385;51.572;6.578;2022-12-20T06:18:57;13.50;68.70
31677;DHT22;18385;51.572;6.578;2022-12-20T06:21:23;13.50;68.70
31677;DHT22;18385;51.572;6.578;2022-12-20T06:23:51;13.50;68.70
31677;DHT22;18385;51.572;6.578;2022-12-20T06:26:17;13.50;68.70
31677;DHT22;18385;51.572;6.578;2022-12-20T06:28:48;13.50;68.70
31677;DHT22;18385;51.572;6.578;2022-12-20T06:31:21;13.60;68.70
31677;DHT22;18385;51.572;6.578;2022-12-20T06:33:50;13.50;68.70
31677;DHT22;18385;51.572;6.578;2022-12-20T06:36:19;13.60;68.80
31677;DHT22;18385;51.572;6.578;2022-12-20T06:38:44;13.50;68.70
31677;DHT22;18385;51.572;6.578;2022-12-20T06:41:10;13.50;68.70
31677;DHT22;18385;51.572;6.578;2022-12-20T06:43:36;13.60;68.80
31677;DHT22;18385;51.572;6.578;2022-12-20T06:46:02;13.60;68.70
31677;DHT22;18385;51.572;6.578;2022-12-20T06:48:28;13.60;68.70
31677;DHT22;18385;51.572;6.578;2022-12-20T06:50:54;13.60;68.70
31677;DHT22;18385;51.572;6.578;2022-12-20T06:53:20;13.60;68.60
31677;DHT22;18385;51.572;6.578;2022-12-20T06:55:47;13.60;68.60
31677;DHT22;18385;51.572;6.578;2022-12-20T06:58:17;13.70;68.70
31677;DHT22;18385;51.572;6.578;2022-12-20T07:00:46;13.70;68.60
31677;DHT22;18385;51.572;6.578;2022-12-20T07:03:12;13.70;68.60
31677;DHT22;18385;51.572;6.578;2022-12-20T07:05:38;13.70;68.60
31677;DHT22;18385;51.572;6.578;2022-12-20T07:08:04;13.70;69.40
31677;DHT22;18385;51.572;6.578;2022-12-20T07:10:32;13.80;68.60
31677;DHT22;18385;51.572;6.578;2022-12-20T07:12:58;13.70;68.50
31677;DHT22;18385;51.572;6.578;2022-12-20T07:15:23;13.80;68.50
31677;DHT22;18385;51.572;6.578;2022-12-20T07:17:49;13.80;68.50
31677;DHT22;18385;51.572;6.578;2022-12-20T07:20:16;13.70;68.40
31677;DHT22;18385;51.572;6.578;2022-12-20T07:22:42;13.70;68.40
31677;DHT22;18385;51.572;6.578;2022-12-20T07:25:08;13.70;68.50
31677;DHT22;18385;51.572;6.578;2022-12-20T07:27:34;13.70;68.50
31677;DHT22;18385;51.572;6.578;2022-12-20T07:30:00;13.60;68.50
31677;DHT22;18385;51.572;6.578;2022-12-20T07:32:25;13.50;68.50
31677;DHT22;18385;51.572;6.578;2022-12-20T07:34:51;13.50;68.70
31677;DHT22;18385;51.572;6.578;2022-12-20T07:37:17;13.50;69.50
31677;DHT22;18385;51.572;6.578;2022-12-20T07:39:42;13.50;68.70
31677;DHT22;18385;51.572;6.578;2022-12-20T07:42:08;13.50;68.70
31677;DHT22;18385;51.572;6.578;2022-12-20T07:44:41;13.60;68.80
31677;DHT22;18385;51.572;6.578;2022-12-20T07:47:07;13.60;68.70
31677;DHT22;18385;51.572;6.578;2022-12-20T07:49:32;13.60;68.70
31677;DHT22;18385;51.572;6.578;2022-12-20T07:52:00;13.60;68.70
31677;DHT22;18385;51.572;6.578;2022-12-20T07:54:30;13.70;68.60
31677;DHT22;18385;51.572;6.578;2022-12-20T07:57:00;13.70;68.60
31677;DHT22;18385;51.572;6.578;2022-12-20T07:59:37;13.80;68.60
31677;DHT22;18385;51.572;6.578;2022-12-20T08:02:04;13.80;68.60
31677;DHT22;18385;51.572;6.578;2022-12-20T08:04:31;13.90;68.50
31677;DHT22;18385;51.572;6.578;2022-12-20T08:06:59;13.90;68.40
31677;DHT22;18385;51.572;6.578;2022-12-20T08:09:27;13.90;68.30
31677;DHT22;18385;51.572;6.578;2022-12-20T08:11:54;13.90;68.30
31677;DHT22;18385;51.572;6.578;2022-12-20T08:14:22;14.00;68.30
31677;DHT22;18385;51.572;6.578;2022-12-20T08:16:48;14.00;68.20
31677;DHT22;18385;51.572;6.578;2022-12-20T08:19:13;14.00;68.10
31677;DHT22;18385;51.572;6.578;2022-12-20T08:21:39;14.00;68.10
31677;DHT22;18385;51.572;6.578;2022-12-20T08:24:05;14.10;68.20
31677;DHT22;18385;51.572;6.578;2022-12-20T08:26:30;14.10;68.10
31677;DHT22;18385;51.572;6.578;2022-12-20T08:28:56;14.10;68.00
31677;DHT22;18385;51.572;6.578;2022-12-20T08:31:22;14.10;68.00
31677;DHT22;18385;51.572;6.578;2022-12-20T08:33:48;14.20;68.00
31677;DHT22;18385;51.572;6.578;2022-12-20T08:36:14;14.20;68.00
31677;DHT22;18385;51.572;6.578;2022-12-20T08:38:40;14.30;67.90
31677;DHT22;18385;51.572;6.578;2022-12-20T08:41:11;14.30;67.80
31677;DHT22;18385;51.572;6.578;2022-12-20T08:43:37;14.40;68.60
31677;DHT22;18385;51.572;6.578;2022-12-20T08:46:03;14.40;67.70
31677;DHT22;18385;51.572;6.578;2022-12-20T08:48:29;14.50;67.60
31677;DHT22;18385;51.572;6.578;2022-12-20T08:50:59;14.50;67.50
31677;DHT22;18385;51.572;6.578;2022-12-20T08:53:26;14.50;67.50
31677;DHT22;18385;51.572;6.578;2022-12-20T08:55:52;14.60;67.50
31677;DHT22;18385;51.572;6.578;2022-12-20T08:58:19;14.60;67.40
31677;DHT22;18385;51.572;6.578;2022-12-20T09:00:46;14.70;67.30
31677;DHT22;18385;51.572;6.578;2022-12-20T09:03:12;14.70;67.20
31677;DHT22;18385;51.572;6.578;2022-12-20T09:05:48;14.70;67.10
31677;DHT22;18385;51.572;6.578;2022-12-20T09:08:16;14.70;67.00
31677;DHT22;18385;51.572;6.578;2022-12-20T09:10:42;14.70;67.00
31677;DHT22;18385;51.572;6.578;2022-12-20T09:13:09;14.70;67.00
31677;DHT22;18385;51.572;6.578;2022-12-20T09:15:35;14.70;67.00
31677;DHT22;18385;51.572;6.578;2022-12-20T09:18:01;14.70;67.00
31677;DHT22;18385;51.572;6.578;2022-12-20T09:20:29;14.80;67.10
31677;DHT22;18385;51.572;6.578;2022-12-20T09:22:56;14.80;67.00
31677;DHT22;18385;51.572;6.578;2022-12-20T09:25:22;14.90;67.00
31677;DHT22;18385;51.572;6.578;2022-12-20T09:27:48;14.90;66.90
31677;DHT22;18385;51.572;6.578;2022-12-20T09:30:13;14.90;66.80
31677;DHT22;18385;51.572;6.578;2022-12-20T09:32:39;14.90;66.80
31677;DHT22;18385;51.572;6.578;2022-12-20T09:35:05;14.90;66.80
31677;DHT22;18385;51.572;6.578;2022-12-20T09:37:31;15.00;67.60
31677;DHT22;18385;51.572;6.578;2022-12-20T09:39:57;15.00;66.70
31677;DHT22;18385;51.572;6.578;2022-12-20T09:42:28;15.00;66.60
31677;DHT22;18385;51.572;6.578;2022-12-20T09:45:00;15.00;66.60
31677;DHT22;18385;51.572;6.578;2022-12-20T09:47:27;15.00;66.60
31677;DHT22;18385;51.572;6.578;2022-12-20T09:49:55;14.90;66.60
31677;DHT22;18385;51.572;6.578;2022-12-20T09:55:35;14.80;66.70
31677;DHT22;18385;51.572;6.578;2022-12-20T09:58:26;14.80;66.80
31677;DHT22;18385;51.572;6.578;2022-12-20T10:00:54;14.80;66.80
31677;DHT22;18385;51.572;6.578;2022-12-20T10:03:26;14.70;66.80
31677;DHT22;18385;51.572;6.578;2022-12-20T10:05:58;14.80;66.90
31677;DHT22;18385;51.572;6.578;2022-12-20T10:25:22;15.00;66.50
31677;DHT22;18385;51.572;6.578;2022-12-20T10:27:50;14.90;66.60
31677;DHT22;18385;51.572;6.578;2022-12-20T10:30:20;14.90;66.60
31677;DHT22;18385;51.572;6.578;2022-12-20T10:32:48;14.90;66.60
31677;DHT22;18385;51.572;6.578;2022-12-20T10:37:58;14.80;66.70
31677;DHT22;18385;51.572;6.578;2022-12-20T10:40:27;14.80;66.80
31677;DHT22;18385;51.572;6.578;2022-12-20T10:42:53;14.90;66.90
31677;DHT22;18385;51.572;6.578;2022-12-20T10:47:50;15.00;66.70
31677;DHT22;18385;51.572;6.578;2022-12-20T10:50:20;15.10;66.70
31677;DHT22;18385;51.572;6.578;2022-12-20T10:53:03;15.20;66.60
31677;DHT22;18385;51.572;6.578;2022-12-20T10:55:35;15.30;66.50
31677;DHT22;18385;51.572;6.578;2022-12-20T10:58:32;15.30;66.40
31677;DHT22;18385;51.572;6.578;2022-12-20T11:01:14;15.30;66.30
31677;DHT22;18385;51.572;6.578;2022-12-20T11:03:53;15.30;66.30
31677;DHT22;18385;51.572;6.578;2022-12-20T11:06:20;15.40;67.20
31677;DHT22;18385;51.572;6.578;2022-12-20T11:08:46;15.50;66.60
31677;DHT22;18385;51.572;6.578;2022-12-20T11:11:21;15.50;66.30
31677;DHT22;18385;51.572;6.578;2022-12-20T11:13:48;15.50;66.10
31677;DHT22;18385;51.572;6.578;2022-12-20T11:18:56;15.50;65.90
31677;DHT22;18385;51.572;6.578;2022-12-20T11:27:19;15.50;65.80
31677;DHT22;18385;51.572;6.578;2022-12-20T11:44:24;15.30;66.10
31677;DHT22;18385;51.572;6.578;2022-12-20T11:57:31;15.20;66.30
31677;DHT22;18385;51.572;6.578;2022-12-20T12:00:00;15.20;66.20
31677;DHT22;18385;51.572;6.578;2022-12-20T12:02:33;15.20;66.20
31677;DHT22;18385;51.572;6.578;2022-12-20T12:05:13;15.20;66.20
31677;DHT22;18385;51.572;6.578;2022-12-20T12:07:43;15.30;66.30
31677;DHT22;18385;51.572;6.578;2022-12-20T12:10:22;15.40;66.20
31677;DHT22;18385;51.572;6.578;2022-12-20T12:16:31;15.40;66.10
31677;DHT22;18385;51.572;6.578;2022-12-20T12:18:59;15.40;66.10
31677;DHT22;18385;51.572;6.578;2022-12-20T12:21:30;15.40;66.10
31677;DHT22;18385;51.572;6.578;2022-12-20T12:24:07;15.40;66.00
31677;DHT22;18385;51.572;6.578;2022-12-20T12:26:39;15.40;65.90
31677;DHT22;18385;51.572;6.578;2022-12-20T12:29:11;15.40;66.00
31677;DHT22;18385;51.572;6.578;2022-12-20T12:34:32;15.50;66.00
31677;DHT22;18385;51.572;6.578;2022-12-20T12:37:30;15.50;66.00
31677;DHT22;18385;51.572;6.578;2022-12-20T12:45:54;15.40;66.10
31677;DHT22;18385;51.572;6.578;2022-12-20T12:50:53;15.40;66.20
31677;DHT22;18385;51.572;6.578;2022-12-20T12:53:31;15.50;66.20
31677;DHT22;18385;51.572;6.578;2022-12-20T12:55:58;15.40;66.10
31677;DHT22;18385;51.572;6.578;2022-12-20T13:11:54;15.40;66.40
31677;DHT22;18385;51.572;6.578;2022-12-20T13:16:53;15.40;66.70
31677;DHT22;18385;51.572;6.578;2022-12-20T13:19:47;15.40;66.80
31677;DHT22;18385;51.572;6.578;2022-12-20T13:22:21;15.40;66.80
31677;DHT22;18385;51.572;6.578;2022-12-20T13:25:01;15.30;66.90
31677;DHT22;18385;51.572;6.578;2022-12-20T13:27:29;15.30;67.10
31677;DHT22;18385;51.572;6.578;2022-12-20T13:32:58;15.20;67.30
31677;DHT22;18385;51.572;6.578;2022-12-20T13:35:30;15.20;67.30
31677;DHT22;18385;51.572;6.578;2022-12-20T13:38:00;15.10;67.50
31677;DHT22;18385;51.572;6.578;2022-12-20T13:40:43;15.10;67.40
31677;DHT22;18385;51.572;6.578;2022-12-20T13:45:46;14.90;67.80
31677;DHT22;18385;51.572;6.578;2022-12-20T13:48:14;14.70;67.80
31677;DHT22;18385;51.572;6.578;2022-12-20T13:50:50;14.70;68.40
31677;DHT22;18385;51.572;6.578;2022-12-20T13:53:22;14.60;68.20
31677;DHT22;18385;51.572;6.578;2022-12-20T13:55:48;14.60;68.50
31677;DHT22;18385;51.572;6.578;2022-12-20T13:58:20;14.50;68.50
31677;DHT22;18385;51.572;6.578;2022-12-20T14:00:48;14.50;68.70
31677;DHT22;18385;51.572;6.578;2022-12-20T14:03:21;14.50;68.70
31677;DHT22;18385;51.572;6.578;2022-12-20T14:05:52;14.50;69.00
31677;DHT22;18385;51.572;6.578;2022-12-20T14:08:22;14.50;68.90
31677;DHT22;18385;51.572;6.578;2022-12-20T14:10:51;14.40;69.10
31677;DHT22;18385;51.572;6.578;2022-12-20T14:13:26;14.40;69.10
31677;DHT22;18385;51.572;6.578;2022-12-20T14:15:53;14.40;69.40
31677;DHT22;18385;51.572;6.578;2022-12-20T14:18:20;14.40;69.30
31677;DHT22;18385;51.572;6.578;2022-12-20T14:20:49;14.40;69.50
31677;DHT22;18385;51.572;6.578;2022-12-20T14:23:21;14.40;69.40
31677;DHT22;18385;51.572;6.578;2022-12-20T14:25:59;14.40;69.40
31677;DHT22;18385;51.572;6.578;2022-12-20T14:28:37;14.40;69.60
31677;DHT22;18385;51.572;6.578;2022-12-20T14:31:05;14.40;69.70
31677;DHT22;18385;51.572;6.578;2022-12-20T14:33:39;14.40;69.60
31677;DHT22;18385;51.572;6.578;2022-12-20T14:38:42;14.40;69.70
31677;DHT22;18385;51.572;6.578;2022-12-20T14:41:39;14.30;69.70
31677;DHT22;18385;51.572;6.578;2022-12-20T14:44:20;14.30;69.80
31677;DHT22;18385;51.572;6.578;2022-12-20T14:49:22;14.30;70.00
31677;DHT22;18385;51.572;6.578;2022-12-20T14:51:48;14.30;70.10
31677;DHT22;18385;51.572;6.578;2022-12-20T14:54:20;14.30;70.00
31677;DHT22;18385;51.572;6.578;2022-12-20T14:56:48;14.30;70.10
31677;DHT22;18385;51.572;6.578;2022-12-20T14:59:26;14.40;70.10
31677;DHT22;18385;51.572;6.578;2022-12-20T15:01:52;14.40;70.10
31677;DHT22;18385;51.572;6.578;2022-12-20T15:04:31;14.40;70.10
31677;DHT22;18385;51.572;6.578;2022-12-20T15:07:01;14.40;70.20
31677;DHT22;18385;51.572;6.578;2022-12-20T15:09:27;14.40;70.10
31677;DHT22;18385;51.572;6.578;2022-12-20T15:11:54;14.40;70.20
31677;DHT22;18385;51.572;6.578;2022-12-20T15:14:26;14.40;70.30
31677;DHT22;18385;51.572;6.578;2022-12-20T15:16:53;14.40;70.40
31677;DHT22;18385;51.572;6.578;2022-12-20T15:19:18;14.40;70.30
31677;DHT22;18385;51.572;6.578;2022-12-20T15:21:44;14.40;70.30
31677;DHT22;18385;51.572;6.578;2022-12-20T15:24:13;14.40;70.40
31677;DHT22;18385;51.572;6.578;2022-12-20T15:26:39;14.40;70.40
31677;DHT22;18385;51.572;6.578;2022-12-20T15:29:05;14.40;70.40
31677;DHT22;18385;51.572;6.578;2022-12-20T15:31:34;14.40;70.40
31677;DHT22;18385;51.572;6.578;2022-12-20T15:34:13;14.40;70.50
31677;DHT22;18385;51.572;6.578;2022-12-20T15:36:40;14.40;70.50
31677;DHT22;18385;51.572;6.578;2022-12-20T15:39:06;14.40;70.50
31677;DHT22;18385;51.572;6.578;2022-12-20T15:41:32;14.30;70.50
31677;DHT22;18385;51.572;6.578;2022-12-20T15:44:13;14.40;70.60
31677;DHT22;18385;51.572;6.578;2022-12-20T15:46:39;14.30;70.60
31677;DHT22;18385;51.572;6.578;2022-12-20T15:49:05;14.30;70.70
31677;DHT22;18385;51.572;6.578;2022-12-20T15:51:36;14.30;70.70
31677;DHT22;18385;51.572;6.578;2022-12-20T15:56:52;14.30;70.70
31677;DHT22;18385;51.572;6.578;2022-12-20T15:59:18;14.30;70.70
31677;DHT22;18385;51.572;6.578;2022-12-20T16:01:44;14.30;70.80
31677;DHT22;18385;51.572;6.578;2022-12-20T16:04:18;14.30;70.80
31677;DHT22;18385;51.572;6.578;2022-12-20T16:06:46;14.30;70.90
31677;DHT22;18385;51.572;6.578;2022-12-20T16:09:12;14.30;70.90
31677;DHT22;18385;51.572;6.578;2022-12-20T16:11:38;14.30;70.90
31677;DHT22;18385;51.572;6.578;2022-12-20T16:14:05;14.30;71.00
31677;DHT22;18385;51.572;6.578;2022-12-20T16:16:35;14.30;71.00
31677;DHT22;18385;51.572;6.578;2022-12-20T16:19:02;14.30;71.10
31677;DHT22;18385;51.572;6.578;2022-12-20T16:21:33;14.40;71.10
31677;DHT22;18385;51.572;6.578;2022-12-20T16:23:59;14.40;71.10
31677;DHT22;18385;51.572;6.578;2022-12-20T16:26:25;14.40;71.00
31677;DHT22;18385;51.572;6.578;2022-12-20T16:28:52;14.40;71.00
31677;DHT22;18385;51.572;6.578;2022-12-20T16:31:32;14.40;71.00
31677;DHT22;18385;51.572;6.578;2022-12-20T16:34:04;14.40;71.10
31677;DHT22;18385;51.572;6.578;2022-12-20T16:36:31;14.40;71.10
31677;DHT22;18385;51.572;6.578;2022-12-20T16:38:56;14.30;71.10
31677;DHT22;18385;51.572;6.578;2022-12-20T16:41:27;14.40;71.10
31677;DHT22;18385;51.572;6.578;2022-12-20T16:43:55;14.40;71.20
31677;DHT22;18385;51.572;6.578;2022-12-20T16:46:24;14.30;71.10
31677;DHT22;18385;51.572;6.578;2022-12-20T16:48:51;14.30;71.20
31677;DHT22;18385;51.572;6.578;2022-12-20T16:54:15;14.30;71.40
31677;DHT22;18385;51.572;6.578;2022-12-20T16:56:41;14.30;71.40
31677;DHT22;18385;51.572;6.578;2022-12-20T16:59:07;14.30;71.30
31677;DHT22;18385;51.572;6.578;2022-12-20T17:01:34;14.40;71.40
31677;DHT22;18385;51.572;6.578;2022-12-20T17:04:01;14.30;71.40
31677;DHT22;18385;51.572;6.578;2022-12-20T17:06:27;14.30;71.30
31677;DHT22;18385;51.572;6.578;2022-12-20T17:08:53;14.30;71.40
31677;DHT22;18385;51.572;6.578;2022-12-20T17:11:21;14.30;71.30
31677;DHT22;18385;51.572;6.578;2022-12-20T17:13:50;14.40;72.20
31677;DHT22;18385;51.572;6.578;2022-12-20T17:16:16;14.40;71.40
31677;DHT22;18385;51.572;6.578;2022-12-20T17:18:45;14.40;71.40
31677;DHT22;18385;51.572;6.578;2022-12-20T17:21:35;14.40;71.40
31677;DHT22;18385;51.572;6.578;2022-12-20T17:24:05;14.40;71.50
31677;DHT22;18385;51.572;6.578;2022-12-20T17:26:32;14.40;71.40
31677;DHT22;18385;51.572;6.578;2022-12-20T17:28:58;14.40;71.50
31677;DHT22;18385;51.572;6.578;2022-12-20T17:31:39;14.40;71.50
31677;DHT22;18385;51.572;6.578;2022-12-20T17:34:23;14.40;71.60
31677;DHT22;18385;51.572;6.578;2022-12-20T17:36:51;14.40;71.60
31677;DHT22;18385;51.572;6.578;2022-12-20T17:39:16;14.40;72.40
31677;DHT22;18385;51.572;6.578;2022-12-20T17:41:43;14.30;71.60
31677;DHT22;18385;51.572;6.578;2022-12-20T17:46:42;14.40;71.70
31677;DHT22;18385;51.572;6.578;2022-12-20T17:49:08;14.30;71.60